createdAt,value
2018-06-15T00:00:24.558Z,15.80
2018-06-15T00:02:58.347Z,15.60
2018-06-15T00:05:26.811Z,15.60
2018-06-15T00:07:55.214Z,15.60
2018-06-15T00:10:23.841Z,15.60
2018-06-15T00:12:52.311Z,15.70
2018-06-15T00:15:20.806Z,15.60
2018-06-15T00:17:49.573Z,15.70
2018-06-15T00:20:18.116Z,15.60
2018-06-15T00:22:46.587Z,15.60
2018-06-15T00:25:15.193Z,15.50
2018-06-15T00:27:43.701Z,15.40
2018-06-15T00:30:12.930Z,15.30
2018-06-15T00:32:41.425Z,15.30
2018-06-15T00:35:09.914Z,15.20
2018-06-15T00:37:38.966Z,15.30
2018-06-15T00:40:07.446Z,15.30
2018-06-15T00:42:35.929Z,15.30
2018-06-15T00:45:04.513Z,15.30
2018-06-15T00:47:32.971Z,15.20
2018-06-15T00:50:01.424Z,15.10
2018-06-15T00:52:29.972Z,15.00
2018-06-15T00:54:59.106Z,15.00
2018-06-15T00:57:43.157Z,15.00
2018-06-15T01:00:11.945Z,15.10
2018-06-15T01:02:40.460Z,15.00
2018-06-15T01:05:08.991Z,14.90
2018-06-15T01:07:37.442Z,14.90
2018-06-15T01:10:06.142Z,14.90
2018-06-15T01:12:34.646Z,14.90
2018-06-15T01:15:03.212Z,14.90
2018-06-15T01:17:31.796Z,14.90
2018-06-15T01:20:01.039Z,15.00
2018-06-15T01:22:29.562Z,15.00
2018-06-15T01:24:58.809Z,15.00
2018-06-15T01:27:27.285Z,14.90
2018-06-15T01:29:55.763Z,14.90
2018-06-15T01:32:24.216Z,15.00
2018-06-15T01:34:52.906Z,14.90
2018-06-15T01:37:21.335Z,14.80
2018-06-15T01:39:49.931Z,14.90
2018-06-15T01:44:46.916Z,15.00
2018-06-15T01:47:15.744Z,15.10
2018-06-15T01:49:44.173Z,15.10
2018-06-15T01:52:12.611Z,15.10
2018-06-15T01:54:41.331Z,15.00
2018-06-15T01:57:10.627Z,14.80
2018-06-15T01:59:39.121Z,14.50
2018-06-15T02:02:07.617Z,14.50
2018-06-15T02:04:36.048Z,14.50
2018-06-15T02:07:05.666Z,14.50
2018-06-15T02:09:34.145Z,14.60
2018-06-15T02:12:03.187Z,14.60
2018-06-15T02:14:31.683Z,14.70
2018-06-15T02:17:00.163Z,14.60
2018-06-15T02:19:28.645Z,14.60
2018-06-15T02:21:57.125Z,14.50
2018-06-15T02:24:25.650Z,14.40
2018-06-15T02:26:54.346Z,14.30
2018-06-15T02:31:51.128Z,14.50
2018-06-15T02:34:19.720Z,14.50
2018-06-15T02:36:48.316Z,14.50
2018-06-15T02:39:16.853Z,14.60
2018-06-15T02:41:45.873Z,14.60
2018-06-15T02:44:14.693Z,14.70
2018-06-15T02:46:43.349Z,14.60
2018-06-15T02:49:12.737Z,14.50
2018-06-15T02:51:41.771Z,14.50
2018-06-15T02:54:10.327Z,14.60
2018-06-15T02:56:39.434Z,14.50
2018-06-15T02:59:07.902Z,14.50
2018-06-15T03:01:36.475Z,14.40
2018-06-15T03:04:04.962Z,14.40
2018-06-15T03:06:34.103Z,14.50
2018-06-15T03:09:02.767Z,14.50
2018-06-15T03:11:31.202Z,14.50
2018-06-15T03:13:59.840Z,14.50
2018-06-15T03:16:28.406Z,14.50
2018-06-15T03:18:56.973Z,14.40
2018-06-15T03:21:25.514Z,14.20
2018-06-15T03:23:54.770Z,14.10
2018-06-15T03:26:23.226Z,14.00
2018-06-15T03:28:51.694Z,14.00
2018-06-15T03:31:20.890Z,14.00
2018-06-15T03:33:49.329Z,14.00
2018-06-15T03:36:17.786Z,14.00
2018-06-15T03:38:46.249Z,14.00
2018-06-15T03:41:14.772Z,14.00
2018-06-15T03:43:43.900Z,14.10
2018-06-15T03:46:12.621Z,14.20
2018-06-15T03:48:41.041Z,14.30
2018-06-15T03:51:09.513Z,14.30
2018-06-15T03:53:37.965Z,14.40
2018-06-15T03:56:06.554Z,14.30
2018-06-15T03:58:35.225Z,14.30
2018-06-15T04:01:03.738Z,14.30
2018-06-15T04:03:32.177Z,14.20
2018-06-15T04:06:00.606Z,14.20
2018-06-15T04:08:29.184Z,14.20
2018-06-15T04:10:57.657Z,14.30
2018-06-15T04:13:26.692Z,14.40
2018-06-15T04:15:55.096Z,14.50
2018-06-15T04:18:23.552Z,14.60
2018-06-15T04:20:52.022Z,14.60
2018-06-15T04:23:20.568Z,14.60
2018-06-15T04:25:49.099Z,14.50
2018-06-15T04:28:17.529Z,14.40
2018-06-15T04:30:46.036Z,14.30
2018-06-15T04:33:14.593Z,14.30
2018-06-15T04:35:43.078Z,14.30
2018-06-15T04:38:11.549Z,14.40
2018-06-15T04:40:40.155Z,14.30
2018-06-15T04:43:08.657Z,14.30
2018-06-15T04:45:37.795Z,14.30
2018-06-15T04:48:06.273Z,14.30
2018-06-15T04:50:34.800Z,14.30
2018-06-15T04:53:03.437Z,14.30
2018-06-15T04:55:32.093Z,14.30
2018-06-15T04:58:01.035Z,14.40
2018-06-15T05:00:29.487Z,14.40
2018-06-15T05:02:57.935Z,14.50
2018-06-15T05:05:26.514Z,14.70
2018-06-15T05:07:55.018Z,15.00
2018-06-15T05:10:24.025Z,15.10
2018-06-15T05:12:52.537Z,15.20
2018-06-15T05:15:21.523Z,15.40
2018-06-15T05:17:49.995Z,15.50
2018-06-15T05:20:19.269Z,15.60
2018-06-15T05:22:47.745Z,15.80
2018-06-15T05:25:16.227Z,15.80
2018-06-15T05:27:44.743Z,16.00
2018-06-15T05:30:13.209Z,15.90
2018-06-15T05:32:42.199Z,15.70
2018-06-15T05:35:10.865Z,15.70
2018-06-15T05:37:39.269Z,15.90
2018-06-15T05:40:07.872Z,15.80
2018-06-15T05:42:36.482Z,15.90
2018-06-15T05:45:05.236Z,16.00
2018-06-15T05:47:33.701Z,16.20
2018-06-15T05:50:02.386Z,16.30
2018-06-15T05:52:30.905Z,16.40
2018-06-15T05:54:59.382Z,16.40
2018-06-15T05:57:27.834Z,16.50
2018-06-15T05:59:56.963Z,16.50
2018-06-15T06:02:25.412Z,16.60
2018-06-15T06:04:53.898Z,16.60
2018-06-15T06:07:22.497Z,16.70
2018-06-15T06:09:51.018Z,16.70
2018-06-15T06:12:20.213Z,16.70
2018-06-15T06:14:48.752Z,16.70
2018-06-15T06:17:17.212Z,16.80
2018-06-15T06:19:45.659Z,16.90
2018-06-15T06:22:14.201Z,16.90
2018-06-15T06:24:42.991Z,17.10
2018-06-15T06:27:11.521Z,17.10
2018-06-15T06:29:39.996Z,17.20
2018-06-15T06:32:08.599Z,17.20
2018-06-15T06:34:37.097Z,17.20
2018-06-15T06:37:05.553Z,17.30
2018-06-15T06:39:34.065Z,17.40
2018-06-15T06:42:02.588Z,17.60
2018-06-15T06:44:31.081Z,17.50
2018-06-15T06:46:59.671Z,17.50
2018-06-15T06:49:28.573Z,17.40
2018-06-15T06:51:57.274Z,17.50
2018-06-15T06:54:26.667Z,17.60
2018-06-15T06:56:55.330Z,17.80
2018-06-15T06:59:23.813Z,18.00
2018-06-15T07:01:52.363Z,18.20
2018-06-15T07:04:21.527Z,18.30
2018-06-15T07:06:50.131Z,18.30
2018-06-15T07:09:18.578Z,18.30
2018-06-15T07:11:47.103Z,18.50
2018-06-15T07:14:15.663Z,18.80
2018-06-15T07:16:44.167Z,18.90
2018-06-15T07:19:13.221Z,18.80
2018-06-15T07:21:41.711Z,18.80
2018-06-15T07:24:10.132Z,18.80
2018-06-15T07:26:38.722Z,19.00
2018-06-15T07:29:07.342Z,19.30
2018-06-15T07:31:35.857Z,19.10
2018-06-15T07:34:05.132Z,19.40
2018-06-15T07:36:33.595Z,19.50
2018-06-15T07:39:02.264Z,19.40
2018-06-15T07:41:30.712Z,19.20
2018-06-15T07:43:59.238Z,19.60
2018-06-15T07:46:27.893Z,19.90
2018-06-15T07:48:57.025Z,19.90
2018-06-15T07:51:25.458Z,20.20
2018-06-15T07:53:53.955Z,20.50
2018-06-15T07:56:22.591Z,20.20
2018-06-15T07:58:51.172Z,19.60
2018-06-15T08:01:19.697Z,19.30
2018-06-15T08:03:53.492Z,19.50
2018-06-15T08:06:22.108Z,19.70
2018-06-15T08:08:50.672Z,19.80
2018-06-15T08:11:19.155Z,20.10
2018-06-15T08:16:16.069Z,20.70
2018-06-15T08:18:44.668Z,20.90
2018-06-15T08:21:13.204Z,20.90
2018-06-15T08:23:42.273Z,20.60
2018-06-15T08:26:11.096Z,20.70
2018-06-15T08:28:39.560Z,20.90
2018-06-15T08:31:08.101Z,21.00
2018-06-15T08:33:36.569Z,21.00
2018-06-15T08:36:05.659Z,21.20
2018-06-15T08:38:34.114Z,21.10
2018-06-15T08:41:02.754Z,20.80
2018-06-15T08:43:31.287Z,21.00
2018-06-15T08:45:59.768Z,21.30
2018-06-15T08:48:28.289Z,21.20
2018-06-15T08:50:56.809Z,20.80
2018-06-15T08:53:25.400Z,21.10
2018-06-15T08:55:54.382Z,21.70
2018-06-15T09:00:51.255Z,22.00
2018-06-15T09:03:19.711Z,22.10
2018-06-15T09:05:48.146Z,22.30
2018-06-15T09:08:16.605Z,22.70
2018-06-15T09:10:45.082Z,22.50
2018-06-15T09:13:14.237Z,22.80
2018-06-15T09:15:43.107Z,22.80
2018-06-15T09:18:11.676Z,23.40
2018-06-15T09:20:40.343Z,23.70
2018-06-15T09:23:08.814Z,24.10
2018-06-15T09:25:37.351Z,24.50
2018-06-15T09:28:05.796Z,25.10
2018-06-15T09:30:34.226Z,24.60
2018-06-15T09:33:02.986Z,24.70
2018-06-15T09:35:31.510Z,24.60
2018-06-15T09:38:00.183Z,24.80
2018-06-15T09:40:28.697Z,25.00
2018-06-15T09:42:57.298Z,25.30
2018-06-15T09:45:26.123Z,25.40
2018-06-15T09:47:54.593Z,25.50
2018-06-15T09:50:23.674Z,25.50
2018-06-15T09:52:52.221Z,25.20
2018-06-15T09:55:20.840Z,24.50
2018-06-15T09:57:50.051Z,24.30
2018-06-15T10:01:24.949Z,23.50
2018-06-15T10:03:53.509Z,22.90
2018-06-15T10:06:21.996Z,22.90
2018-06-15T10:08:50.476Z,22.90
2018-06-15T10:11:19.103Z,23.00
2018-06-15T10:13:48.272Z,22.50
2018-06-15T10:16:17.429Z,22.30
2018-06-15T10:18:45.885Z,22.30
2018-06-15T10:21:14.380Z,22.90
2018-06-15T10:23:42.874Z,23.00
2018-06-15T10:26:11.341Z,23.70
2018-06-15T10:28:39.917Z,24.40
2018-06-15T10:31:08.367Z,24.30
2018-06-15T10:33:36.963Z,24.30
2018-06-15T10:36:05.578Z,25.00
2018-06-15T10:38:34.736Z,25.40
2018-06-15T10:41:03.334Z,24.70
2018-06-15T10:43:32.366Z,24.30
2018-06-15T10:46:00.920Z,24.70
2018-06-15T10:48:29.561Z,24.50
2018-06-15T10:50:58.767Z,24.70
2018-06-15T10:53:27.206Z,24.90
2018-06-15T10:55:55.730Z,24.20
2018-06-15T10:58:24.376Z,24.60
2018-06-15T11:00:53.630Z,24.50
2018-06-15T11:03:23.084Z,24.30
2018-06-15T11:05:52.304Z,24.30
2018-06-15T11:08:21.502Z,24.80
2018-06-15T11:10:50.592Z,25.00
2018-06-15T11:13:19.142Z,24.50
2018-06-15T11:15:48.121Z,24.10
2018-06-15T11:18:16.572Z,23.90
2018-06-15T11:20:45.553Z,23.50
2018-06-15T11:23:14.002Z,23.50
2018-06-15T11:25:42.450Z,24.10
2018-06-15T11:28:10.937Z,24.80
2018-06-15T11:30:39.474Z,25.00
2018-06-15T11:33:07.914Z,24.50
2018-06-15T11:35:36.425Z,24.50
2018-06-15T11:38:05.118Z,24.70
2018-06-15T11:40:33.728Z,24.50
2018-06-15T11:43:02.172Z,25.00
2018-06-15T11:45:30.805Z,25.60
2018-06-15T11:47:59.327Z,25.30
2018-06-15T11:50:27.840Z,25.20
2018-06-15T11:52:56.515Z,25.40
2018-06-15T11:55:25.028Z,24.60
2018-06-15T11:57:53.617Z,24.20
2018-06-15T12:00:22.567Z,24.70
2018-06-15T12:02:51.048Z,25.00
2018-06-15T12:05:20.694Z,24.70
2018-06-15T12:07:50.006Z,24.90
2018-06-15T12:10:18.516Z,24.10
2018-06-15T12:12:47.014Z,23.90
2018-06-15T12:15:15.741Z,23.60
2018-06-15T12:17:44.215Z,24.00
2018-06-15T12:20:12.633Z,24.30
2018-06-15T12:22:41.151Z,24.50
2018-06-15T12:25:09.815Z,25.00
2018-06-15T12:27:38.973Z,25.50
2018-06-15T12:30:08.098Z,26.00
2018-06-15T12:32:37.450Z,26.70
2018-06-15T12:35:06.211Z,26.50
2018-06-15T12:40:03.051Z,27.00
2018-06-15T12:42:31.896Z,27.10
2018-06-15T12:45:00.472Z,27.30
2018-06-15T12:47:29.294Z,26.80
2018-06-15T12:49:58.470Z,25.80
2018-06-15T12:52:27.017Z,25.70
2018-06-15T12:54:55.451Z,25.50
2018-06-15T12:57:24.215Z,25.50
2018-06-15T12:59:52.782Z,25.70
2018-06-15T13:02:21.253Z,24.50
2018-06-15T13:04:49.880Z,24.60
2018-06-15T13:07:18.473Z,24.50
2018-06-15T13:09:47.007Z,24.00
2018-06-15T13:12:15.472Z,24.20
2018-06-15T13:14:44.028Z,24.50
2018-06-15T13:17:12.490Z,25.00
2018-06-15T13:19:41.073Z,25.40
2018-06-15T13:22:10.203Z,26.00
2018-06-15T13:24:38.682Z,25.60
2018-06-15T13:27:07.374Z,25.30
2018-06-15T13:29:36.036Z,24.70
2018-06-15T13:32:04.538Z,24.90
2018-06-15T13:34:33.044Z,24.00
2018-06-15T13:37:01.502Z,23.80
2018-06-15T13:39:30.360Z,24.00
2018-06-15T13:41:58.852Z,24.20
2018-06-15T13:44:27.278Z,24.40
2018-06-15T13:46:55.754Z,24.50
2018-06-15T13:49:24.196Z,24.50
2018-06-15T13:51:52.755Z,24.50
2018-06-15T13:54:21.794Z,24.60
2018-06-15T13:56:50.371Z,24.40
2018-06-15T13:59:18.804Z,24.10
2018-06-15T14:01:48.092Z,24.70
2018-06-15T14:04:16.543Z,25.10
2018-06-15T14:06:45.099Z,24.80
2018-06-15T14:09:13.577Z,24.80
2018-06-15T14:11:42.121Z,24.30
2018-06-15T14:14:10.641Z,24.00
2018-06-15T14:16:39.252Z,23.70
2018-06-15T14:19:07.801Z,23.40
2018-06-15T14:21:36.281Z,23.40
2018-06-15T14:24:04.798Z,23.50
2018-06-15T14:26:33.950Z,23.70
2018-06-15T14:29:02.476Z,23.70
2018-06-15T14:31:31.139Z,23.70
2018-06-15T14:33:59.766Z,23.70
2018-06-15T14:36:28.431Z,23.80
2018-06-15T14:38:56.971Z,24.00
2018-06-15T14:41:25.525Z,24.30
2018-06-15T14:43:54.099Z,24.80
2018-06-15T14:46:22.627Z,24.80
2018-06-15T14:48:51.130Z,25.00
2018-06-15T14:51:20.903Z,25.10
2018-06-15T14:53:49.416Z,24.80
2018-06-15T14:56:18.051Z,24.40
2018-06-15T14:58:46.586Z,24.20
2018-06-15T15:01:15.065Z,24.10
2018-06-15T15:03:44.077Z,24.00
2018-06-15T15:06:12.561Z,23.80
2018-06-15T15:08:41.133Z,23.90
2018-06-15T15:11:09.627Z,23.90
2018-06-15T15:13:38.821Z,24.20
2018-06-15T15:16:08.084Z,24.30
2018-06-15T15:18:37.090Z,24.20
2018-06-15T15:21:05.628Z,24.10
2018-06-15T15:23:34.207Z,24.20
2018-06-15T15:26:02.772Z,24.00
2018-06-15T15:28:32.001Z,23.90
2018-06-15T15:31:00.660Z,23.90
2018-06-15T15:35:58.043Z,24.40
2018-06-15T15:38:26.579Z,24.20
2018-06-15T15:40:55.211Z,24.20
2018-06-15T15:43:23.691Z,24.20
2018-06-15T15:45:52.378Z,24.00
2018-06-15T15:48:20.959Z,24.10
2018-06-15T15:50:49.489Z,24.10
2018-06-15T15:53:18.561Z,23.90
2018-06-15T15:55:47.762Z,24.00
2018-06-15T15:58:16.911Z,24.30
2018-06-15T16:00:45.423Z,24.00
2018-06-15T16:03:14.342Z,24.00
2018-06-15T16:05:42.855Z,24.00
2018-06-15T16:08:11.762Z,23.60
2018-06-15T16:10:40.355Z,23.50
2018-06-15T16:13:08.862Z,23.30
2018-06-15T16:15:37.490Z,23.10
2018-06-15T16:18:05.996Z,23.00
2018-06-15T16:20:34.617Z,22.80
2018-06-15T16:23:03.109Z,22.80
2018-06-15T16:25:31.792Z,22.80
2018-06-15T16:28:00.690Z,22.90
2018-06-15T16:30:29.222Z,23.20
2018-06-15T16:32:58.058Z,23.30
2018-06-15T16:35:26.720Z,23.40
2018-06-15T16:37:55.664Z,23.50
2018-06-15T16:40:24.160Z,23.40
2018-06-15T16:42:52.817Z,23.50
2018-06-15T16:45:21.348Z,23.60
2018-06-15T16:47:49.970Z,23.40
2018-06-15T16:50:18.432Z,23.40
2018-06-15T16:52:47.686Z,23.40
2018-06-15T16:55:16.297Z,23.60
2018-06-15T16:57:44.799Z,23.70
2018-06-15T17:00:13.298Z,23.70
2018-06-15T17:02:41.932Z,23.60
2018-06-15T17:05:10.599Z,23.30
2018-06-15T17:07:39.116Z,23.40
2018-06-15T17:10:07.675Z,23.40
2018-06-15T17:15:06.337Z,23.40
2018-06-15T17:17:35.055Z,23.40
2018-06-15T17:20:03.789Z,23.20
2018-06-15T17:22:32.554Z,23.10
2018-06-15T17:25:02.407Z,23.00
2018-06-15T17:27:31.028Z,22.90
2018-06-15T17:29:59.750Z,23.00
2018-06-15T17:32:28.825Z,23.00
2018-06-15T17:34:57.326Z,22.90
2018-06-15T17:37:25.788Z,22.90
2018-06-15T17:39:54.411Z,22.80
2018-06-15T17:42:22.991Z,22.80
2018-06-15T17:44:51.452Z,22.80
2018-06-15T17:47:20.069Z,22.80
2018-06-15T17:49:48.709Z,22.70
2018-06-15T17:52:17.192Z,22.80
2018-06-15T17:54:45.826Z,22.80
2018-06-15T17:57:14.341Z,22.70
2018-06-15T17:59:42.860Z,22.70
2018-06-15T18:02:11.544Z,22.60
2018-06-15T18:04:40.135Z,22.60
2018-06-15T18:07:09.292Z,22.50
2018-06-15T18:09:38.553Z,22.40
2018-06-15T18:12:07.104Z,22.30
2018-06-15T18:14:35.687Z,22.20
2018-06-15T18:17:04.269Z,22.10
2018-06-15T18:19:32.776Z,22.00
2018-06-15T18:22:01.495Z,21.90
2018-06-15T18:24:30.065Z,21.80
2018-06-15T18:26:58.651Z,21.80
2018-06-15T18:29:27.295Z,21.70
2018-06-15T18:31:55.930Z,21.70
2018-06-15T18:34:25.186Z,21.70
2018-06-15T18:36:53.809Z,21.60
2018-06-15T18:39:22.333Z,21.60
2018-06-15T18:41:50.829Z,21.60
2018-06-15T18:44:19.424Z,21.50
2018-06-15T18:46:47.914Z,21.40
2018-06-15T18:49:16.517Z,21.40
2018-06-15T18:51:45.008Z,21.40
2018-06-15T18:54:13.550Z,21.40
2018-06-15T18:59:11.375Z,21.30
2018-06-15T19:01:40.243Z,21.20
2018-06-15T19:04:08.739Z,21.20
2018-06-15T19:06:37.272Z,21.10
2018-06-15T19:09:07.965Z,21.10
2018-06-15T19:11:37.079Z,21.00
2018-06-15T19:14:05.573Z,20.90
2018-06-15T19:16:34.254Z,20.90
2018-06-15T19:19:03.946Z,20.80
2018-06-15T19:21:38.920Z,20.70
2018-06-15T19:24:07.454Z,20.60
2018-06-15T19:26:36.009Z,20.60
2018-06-15T19:29:05.106Z,20.50
2018-06-15T19:31:33.725Z,20.50
2018-06-15T19:34:02.260Z,20.40
2018-06-15T19:36:30.779Z,20.40
2018-06-15T19:38:59.302Z,20.30
2018-06-15T19:41:27.807Z,20.20
2018-06-15T19:43:56.325Z,20.20
2018-06-15T19:46:25.011Z,20.20
2018-06-15T19:48:53.776Z,20.20
2018-06-15T19:51:22.292Z,20.00
2018-06-15T19:53:51.934Z,19.90
2018-06-15T19:56:20.464Z,19.90
2018-06-15T19:58:49.065Z,19.80
2018-06-15T20:01:17.663Z,19.80
2018-06-15T20:03:46.257Z,19.60
2018-06-15T20:06:14.836Z,19.60
2018-06-15T20:08:43.365Z,19.50
2018-06-15T20:11:11.847Z,19.60
2018-06-15T20:13:40.301Z,19.40
2018-06-15T20:16:09.067Z,19.40
2018-06-15T20:18:37.614Z,19.30
2018-06-15T20:21:06.252Z,19.30
2018-06-15T20:23:34.824Z,19.20
2018-06-15T20:26:03.642Z,19.10
2018-06-15T20:28:32.292Z,18.90
2018-06-15T20:31:01.670Z,18.90
2018-06-15T20:33:30.795Z,18.70
2018-06-15T20:36:00.055Z,18.70
2018-06-15T20:38:28.563Z,18.80
2018-06-15T20:40:57.040Z,18.90
2018-06-15T20:43:25.651Z,18.80
2018-06-15T20:45:54.894Z,18.80
2018-06-15T20:48:23.425Z,18.80
2018-06-15T20:50:52.011Z,18.80
2018-06-15T20:53:21.791Z,18.70
2018-06-15T20:55:50.461Z,18.70
2018-06-15T20:58:19.018Z,18.60
2018-06-15T21:00:47.488Z,18.50
2018-06-15T21:03:16.046Z,18.40
2018-06-15T21:05:44.611Z,18.50
2018-06-15T21:08:13.146Z,18.40
2018-06-15T21:10:42.281Z,18.20
2018-06-15T21:13:10.769Z,18.10
2018-06-15T21:15:39.807Z,18.00
2018-06-15T21:18:08.277Z,18.00
2018-06-15T21:20:37.221Z,17.90
2018-06-15T21:23:06.363Z,17.80
2018-06-15T21:25:34.920Z,17.90
2018-06-15T21:28:03.472Z,17.90
2018-06-15T21:30:32.117Z,17.90
2018-06-15T21:33:00.732Z,17.90
2018-06-15T21:35:29.674Z,17.90
2018-06-15T21:37:58.206Z,17.80
2018-06-15T21:40:26.818Z,17.80
2018-06-15T21:42:55.312Z,17.80
2018-06-15T21:45:23.800Z,17.90
2018-06-15T21:47:52.984Z,18.00
2018-06-15T21:50:21.585Z,18.00
2018-06-15T21:52:50.218Z,18.00
2018-06-15T21:55:19.029Z,17.80
2018-06-15T21:57:47.929Z,17.80
2018-06-15T22:00:16.418Z,17.80
2018-06-15T22:02:45.062Z,17.80
2018-06-15T22:05:13.718Z,17.70
2018-06-15T22:07:42.228Z,17.50
2018-06-15T22:10:10.771Z,17.60
2018-06-15T22:12:40.159Z,17.40
2018-06-15T22:15:09.607Z,17.40
2018-06-15T22:17:38.239Z,17.50
2018-06-15T22:20:06.777Z,17.40
2018-06-15T22:22:35.337Z,17.40
2018-06-15T22:25:03.875Z,17.40
2018-06-15T22:27:32.453Z,17.40
2018-06-15T22:30:00.946Z,17.30
2018-06-15T22:32:29.546Z,17.30
2018-06-15T22:34:58.133Z,17.30
2018-06-15T22:37:26.757Z,17.30
2018-06-15T22:39:55.401Z,17.30
2018-06-15T22:42:24.021Z,17.00
2018-06-15T22:44:52.974Z,16.90
2018-06-15T22:47:21.515Z,16.90
2018-06-15T22:49:50.125Z,16.90
2018-06-15T22:52:18.816Z,16.90
2018-06-15T22:54:48.244Z,16.60
2018-06-15T22:57:17.238Z,16.70
2018-06-15T22:59:45.873Z,16.70
2018-06-15T23:02:14.422Z,16.70
2018-06-15T23:04:42.996Z,16.70
2018-06-15T23:07:11.656Z,16.50
2018-06-15T23:09:40.420Z,16.40
2018-06-15T23:12:09.718Z,16.20
2018-06-15T23:14:38.324Z,16.00
2018-06-15T23:17:06.973Z,15.90
2018-06-15T23:19:35.501Z,16.00
2018-06-15T23:22:04.028Z,16.00
2018-06-15T23:24:32.807Z,16.00
2018-06-15T23:27:01.527Z,15.80
2018-06-15T23:29:30.233Z,15.80
2018-06-15T23:31:58.732Z,15.70
2018-06-15T23:34:28.014Z,15.70
2018-06-15T23:36:56.665Z,15.70
2018-06-15T23:39:25.923Z,15.70
2018-06-15T23:41:54.471Z,15.60
2018-06-15T23:44:23.388Z,15.50
2018-06-15T23:46:51.997Z,15.60
2018-06-15T23:49:20.525Z,15.50
2018-06-15T23:51:49.339Z,15.50
2018-06-15T23:54:18.127Z,15.50
2018-06-15T23:56:46.840Z,15.40
2018-06-15T23:59:15.423Z,15.30
